Time;durP1;ratioP1;P1;durP2;ratioP2;P2;SDS_P1;SDS_P2;PMS_P1;PMS_P2;Temp;Humidity;BMP_temperature;BMP_pressure;BME280_temperature;BME280_humidity;BME280_pressure;Samples;Min_cycle;Max_cycle;Signal;HPM_P1;HPM_P2
2022/11/13 00:01:17;;;;;;;;;39.75;31.75;;;;;21.41;59.75;101633.63;5003355;28;45627;-48
2022/11/13 00:03:42;;;;;;;;;34.50;31.25;;;;;21.42;59.42;101630.91;5021089;28;45395;-47
2022/11/13 00:06:08;;;;;;;;;35.75;31.50;;;;;21.42;59.84;101625.59;5021268;28;45779;-49
2022/11/13 00:08:34;;;;;;;;;32.75;30.00;;;;;21.43;59.58;101623.81;5020034;28;45292;-48
2022/11/13 00:11:07;;;;;;;;;32.50;27.00;;;;;21.41;59.48;101621.22;5019715;28;45399;-49
2022/11/13 00:13:32;;;;;;;;;36.50;30.25;;;;;21.43;59.32;101622.03;5020399;28;46242;-48
2022/11/13 00:16:02;;;;;;;;;37.75;31.00;;;;;21.42;59.43;101622.09;5020054;28;45448;-47
2022/11/13 00:18:28;;;;;;;;;35.00;31.50;;;;;21.42;59.66;101617.63;5019755;28;45369;-49
2022/11/13 00:20:55;;;;;;;;;33.00;31.25;;;;;21.42;60.00;101619.41;5021162;28;45416;-46
2022/11/13 00:23:20;;;;;;;;;34.50;31.25;;;;;21.43;59.52;101616.72;5019682;28;48265;-48
2022/11/13 00:25:46;;;;;;;;;27.50;25.50;;;;;21.42;59.72;101598.19;5018863;28;65538;-49
2022/11/13 00:28:11;;;;;;;;;36.50;32.50;;;;;21.42;59.95;101608.81;5002720;28;58085;-50
2022/11/13 00:30:37;;;;;;;;;34.25;30.00;;;;;21.42;59.71;101608.81;5003237;28;45213;-51
2022/11/13 00:33:02;;;;;;;;;39.25;32.50;;;;;21.42;59.55;101596.41;5020054;28;64601;-49
2022/11/13 00:35:27;;;;;;;;;31.75;30.50;;;;;21.41;59.42;101597.31;5020168;28;63843;-51
2022/11/13 00:37:53;;;;;;;;;38.25;32.00;;;;;21.42;59.96;101591.09;5020079;28;61606;-49
2022/11/13 00:40:18;;;;;;;;;32.75;28.50;;;;;21.42;59.48;101593.75;5020939;28;45243;-49
2022/11/13 00:42:44;;;;;;;;;35.50;30.25;;;;;21.43;60.00;101590.16;5020198;28;58058;-50
2022/11/13 00:45:09;;;;;;;;;37.50;31.50;;;;;21.44;60.07;101588.38;5019537;28;51220;-47
2022/11/13 00:47:35;;;;;;;;;33.25;28.50;;;;;21.43;60.28;101582.19;5019882;28;45512;-48
2022/11/13 00:50:00;;;;;;;;;36.75;32.00;;;;;21.43;60.04;101589.31;5018905;28;56923;-51
2022/11/13 00:52:25;;;;;;;;;35.50;30.00;;;;;21.45;59.85;101583.03;5020112;28;63584;-50
2022/11/13 00:54:51;;;;;;;;;35.00;30.00;;;;;21.44;59.77;101575.09;5020322;28;68830;-51
2022/11/13 00:57:16;;;;;;;;;35.25;30.75;;;;;21.44;60.22;101575.09;5018920;28;58361;-48
2022/11/13 00:59:42;;;;;;;;;32.25;30.75;;;;;21.44;60.46;101575.09;5002814;28;45585;-51
2022/11/13 01:02:08;;;;;;;;;34.25;30.00;;;;;21.44;60.05;101569.78;5002308;28;53396;-48
2022/11/13 01:04:34;;;;;;;;;32.75;30.00;;;;;21.45;59.88;101569.75;5019214;28;45423;-48
2022/11/13 01:06:59;;;;;;;;;30.75;26.50;;;;;21.43;60.07;101560.09;5019186;28;45326;-48
2022/11/13 01:09:25;;;;;;;;;36.50;29.00;;;;;21.43;60.07;101555.66;5019842;28;60212;-47
2022/11/13 01:11:50;;;;;;;;;31.25;28.25;;;;;21.46;59.97;101557.38;5018477;28;52603;-53
2022/11/13 01:14:15;;;;;;;;;35.25;29.75;;;;;21.45;59.91;101548.50;5020132;28;52575;-51
2022/11/13 01:16:41;;;;;;;;;32.50;30.50;;;;;21.45;59.58;101540.53;5020231;28;45839;-54
2022/11/13 01:19:06;;;;;;;;;34.75;31.75;;;;;21.43;59.88;101537.06;5019113;28;45307;-51
2022/11/13 01:21:32;;;;;;;;;33.50;29.75;;;;;21.46;60.11;101538.78;5018592;28;58295;-51
2022/11/13 01:23:57;;;;;;;;;31.25;28.25;;;;;21.43;60.27;101537.06;5019800;28;60988;-49
2022/11/13 01:26:24;;;;;;;;;40.25;31.75;;;;;21.45;60.38;101540.53;5019041;28;45195;-49
2022/11/13 01:28:50;;;;;;;;;35.50;32.00;;;;;21.43;59.83;101537.06;5019116;28;45244;-50
2022/11/13 01:31:18;;;;;;;;;34.25;31.75;;;;;21.45;60.13;101527.25;5020068;28;45259;-51
2022/11/13 01:33:43;;;;;;;;;36.50;31.25;;;;;21.45;59.87;101529.91;5002317;28;45335;-50
2022/11/13 01:36:16;;;;;;;;;32.25;31.00;;;;;21.45;59.91;101532.56;5018883;28;45315;-50
2022/11/13 01:38:42;;;;;;;;;35.25;31.25;;;;;21.44;59.67;101527.31;5018675;28;45477;-50
2022/11/13 01:41:11;;;;;;;;;28.50;27.00;;;;;21.43;59.77;101520.25;5001123;28;66599;-50
2022/11/13 01:43:37;;;;;;;;;31.75;28.00;;;;;21.45;59.69;101529.03;5018690;28;45266;-49
2022/11/13 01:46:13;;;;;;;;;32.00;30.75;;;;;21.43;59.85;101523.78;5019824;28;45172;-53
2022/11/13 01:48:40;;;;;;;;;33.75;31.25;;;;;21.43;59.94;101525.56;5018428;28;45539;-50
2022/11/13 01:51:10;;;;;;;;;29.75;26.25;;;;;21.43;60.28;101525.56;5018594;28;45670;-47
2022/11/13 01:53:36;;;;;;;;;35.50;32.50;;;;;21.45;59.73;101523.72;5002415;28;45501;-47
2022/11/13 01:56:01;;;;;;;;;34.00;31.25;;;;;21.43;59.97;101514.94;5018892;28;62054;-48
2022/11/13 01:58:27;;;;;;;;;37.00;32.25;;;;;21.43;59.88;101515.81;5019576;28;45178;-48
2022/11/13 02:00:52;;;;;;;;;37.25;33.75;;;;;21.45;60.15;101518.41;5001229;28;61237;-46
2022/11/13 02:03:18;;;;;;;;;39.75;33.25;;;;;21.45;59.89;101507.81;5018814;28;56759;-48
2022/11/13 02:05:43;;;;;;;;;32.00;28.00;;;;;21.47;59.60;101505.13;5017931;28;61695;-46
2022/11/13 02:08:08;;;;;;;;;37.25;32.00;;;;;21.46;59.96;101501.59;5019280;28;50889;-50
2022/11/13 02:10:34;;;;;;;;;39.00;32.25;;;;;21.45;60.28;101503.34;5033844;28;66412;-50
2022/11/13 02:12:59;;;;;;;;;34.00;30.00;;;;;21.45;60.28;101497.19;5017591;28;61894;-50
2022/11/13 02:15:25;;;;;;;;;35.50;30.75;;;;;21.45;60.06;101498.03;5018715;28;45267;-49
2022/11/13 02:17:57;;;;;;;;;31.25;27.75;;;;;21.45;59.76;101490.09;4997949;28;65074;-51
2022/11/13 02:21:04;;;;;;;;;35.25;32.50;;;;;21.43;59.92;101494.56;5018490;28;45191;-45
2022/11/13 02:23:42;;;;;;;;;34.50;31.25;;;;;21.45;59.99;101498.03;5019374;28;45228;-50
2022/11/13 02:26:08;;;;;;;;;37.25;32.00;;;;;21.46;59.91;101496.28;5002749;28;45347;-51
2022/11/13 02:28:33;;;;;;;;;37.25;31.25;;;;;21.47;60.20;101497.16;5018879;28;62919;-51
2022/11/13 02:31:06;;;;;;;;;30.75;25.25;;;;;21.45;59.86;101486.56;5017521;28;65028;-47
2022/11/13 02:33:32;;;;;;;;;37.25;33.00;;;;;21.42;59.99;101487.50;5018416;28;45233;-47
2022/11/13 02:35:57;;;;;;;;;39.75;32.75;;;;;21.43;59.97;101486.59;5018334;28;45476;-51
2022/11/13 02:38:22;;;;;;;;;37.75;33.00;;;;;21.46;60.17;101488.31;5022427;28;45354;-48
2022/11/13 02:40:48;;;;;;;;;40.50;33.50;;;;;21.45;60.05;101482.13;5021817;28;63476;-50
2022/11/13 02:43:13;;;;;;;;;35.75;32.25;;;;;21.45;60.06;101478.59;5021020;28;56939;-47
2022/11/13 02:45:39;;;;;;;;;38.00;33.00;;;;;21.46;60.34;101488.31;5021467;28;45494;-50
2022/11/13 02:48:05;;;;;;;;;43.00;33.00;;;;;21.46;60.13;101483.03;5021633;28;70778;-48
2022/11/13 02:50:31;;;;;;;;;39.25;33.75;;;;;21.47;60.43;101478.56;5022233;28;46497;-46
2022/11/13 02:52:56;;;;;;;;;33.00;30.25;;;;;21.45;59.97;101474.16;5022215;28;54686;-50
2022/11/13 02:55:22;;;;;;;;;33.25;31.75;;;;;21.47;60.14;101471.47;5004965;28;45369;-52
2022/11/13 02:57:48;;;;;;;;;35.25;32.00;;;;;21.46;60.04;101467.09;5004475;28;45505;-48
2022/11/13 03:00:13;;;;;;;;;37.25;31.00;;;;;21.48;60.34;101472.34;5022182;28;45598;-50
2022/11/13 03:02:39;;;;;;;;;37.25;33.50;;;;;21.48;59.91;101475.00;5021209;28;45177;-48
2022/11/13 03:05:04;;;;;;;;;40.00;34.25;;;;;21.46;60.68;101477.69;5022344;28;45305;-51
2022/11/13 03:07:30;;;;;;;;;36.75;32.00;;;;;21.47;60.30;101484.75;5004659;28;45479;-49
2022/11/13 03:09:56;;;;;;;;;34.25;30.50;;;;;21.47;60.32;101478.56;5020895;28;46058;-51
2022/11/13 03:12:21;;;;;;;;;37.25;32.00;;;;;21.46;60.52;101475.06;5020837;28;45543;-52
2022/11/13 03:14:47;;;;;;;;;32.25;30.75;;;;;21.47;60.35;101478.56;5022391;28;45160;-49
2022/11/13 03:17:12;;;;;;;;;37.50;33.00;;;;;21.47;60.06;101475.91;5020166;28;65842;-51
2022/11/13 03:19:37;;;;;;;;;35.75;31.25;;;;;21.46;59.99;101475.06;5021176;28;69169;-52
2022/11/13 03:22:03;;;;;;;;;34.75;30.50;;;;;21.47;60.36;101468.81;5004536;28;46627;-49
2022/11/13 03:24:28;;;;;;;;;36.25;31.25;;;;;21.48;60.29;101475.00;5021331;28;61213;-51
2022/11/13 03:26:54;;;;;;;;;42.75;34.50;;;;;21.47;60.12;101478.56;5003916;28;45311;-49
2022/11/13 03:29:19;;;;;;;;;38.25;33.00;;;;;21.47;59.75;101473.25;5020878;28;69464;-50
2022/11/13 03:31:44;;;;;;;;;35.75;32.50;;;;;21.47;59.92;101470.59;5021064;28;71001;-48
2022/11/13 03:34:10;;;;;;;;;39.25;32.75;;;;;21.47;59.99;101475.91;5021530;28;52414;-57
2022/11/13 03:36:35;;;;;;;;;34.00;32.00;;;;;21.47;59.96;101467.94;5021889;28;45350;-50
2022/11/13 03:39:01;;;;;;;;;34.50;31.25;;;;;21.46;59.90;101459.13;5003616;28;75687;-51
2022/11/13 03:41:26;;;;;;;;;38.00;32.25;;;;;21.45;60.14;101458.22;5019794;28;60491;-49
2022/11/13 03:43:51;;;;;;;;;36.25;31.25;;;;;21.45;60.21;101447.59;5003800;28;56682;-49
2022/11/13 03:46:17;;;;;;;;;36.75;32.25;;;;;21.46;60.00;101453.81;5020756;28;45512;-51
2022/11/13 03:48:42;;;;;;;;;42.25;33.75;;;;;21.47;60.12;101441.41;5019014;28;47023;-54
2022/11/13 03:51:08;;;;;;;;;38.00;33.25;;;;;21.47;59.94;101442.25;5021035;28;63863;-51
2022/11/13 03:53:33;;;;;;;;;37.25;31.00;;;;;21.47;59.92;101455.53;5020296;28;45696;-52
2022/11/13 03:55:58;;;;;;;;;37.50;33.50;;;;;21.47;60.19;101446.72;5020923;28;58008;-50
2022/11/13 03:58:24;;;;;;;;;33.00;30.75;;;;;21.46;59.93;101451.16;5020118;28;46160;-49
2022/11/13 04:00:49;;;;;;;;;36.75;31.75;;;;;21.47;60.02;101446.72;5020089;28;45251;-49
2022/11/13 04:03:15;;;;;;;;;38.50;33.00;;;;;21.45;60.38;101439.63;5021401;28;45417;-50
2022/11/13 04:05:41;;;;;;;;;36.00;31.75;;;;;21.45;59.80;101434.31;5020316;28;45560;-50
2022/11/13 04:08:06;;;;;;;;;38.50;31.50;;;;;21.44;60.18;101431.69;5020054;28;45330;-48
2022/11/13 04:10:32;;;;;;;;;37.75;33.25;;;;;21.43;59.92;101429.94;5020106;28;45172;-49
2022/11/13 04:12:57;;;;;;;;;34.75;32.00;;;;;21.45;60.01;101436.09;5020226;28;45340;-49
2022/11/13 04:15:22;;;;;;;;;35.00;30.00;;;;;21.44;60.29;101437.00;5019832;28;51657;-46
2022/11/13 04:17:48;;;;;;;;;37.00;31.50;;;;;21.43;60.31;101432.63;5021135;28;45409;-51
2022/11/13 04:20:14;;;;;;;;;32.50;30.75;;;;;21.45;60.33;101433.44;5020273;28;65316;-49
2022/11/13 04:22:39;;;;;;;;;33.75;31.50;;;;;21.43;59.90;101430.81;5019624;28;45333;-50
2022/11/13 04:25:05;;;;;;;;;31.25;29.25;;;;;21.43;60.24;101429.94;5003281;28;45342;-52
2022/11/13 04:27:30;;;;;;;;;39.00;31.75;;;;;21.42;59.91;101429.09;5020716;28;45387;-49
2022/11/13 04:29:56;;;;;;;;;32.25;30.75;;;;;21.42;59.96;101429.09;5019559;28;45359;-52
2022/11/13 04:32:21;;;;;;;;;38.50;33.25;;;;;21.41;59.80;101435.31;5019344;28;57799;-47
2022/11/13 04:34:46;;;;;;;;;37.25;31.25;;;;;21.42;59.64;101431.75;5018984;28;65212;-50
2022/11/13 04:37:12;;;;;;;;;30.50;28.25;;;;;21.42;59.83;101434.41;5020299;28;64867;-49
2022/11/13 04:39:37;;;;;;;;;33.25;31.25;;;;;21.41;59.96;101427.34;5019484;28;45212;-53
2022/11/13 04:45:04;;;;;;;;;35.25;30.25;;;;;21.41;59.92;101421.16;5018561;28;45279;-47
2022/11/13 04:47:30;;;;;;;;;35.50;29.75;;;;;21.40;60.03;101417.63;4999115;28;46354;-48
2022/11/13 04:49:55;;;;;;;;;37.75;33.00;;;;;21.41;59.74;101418.50;5019948;28;69514;-51
2022/11/13 04:52:20;;;;;;;;;29.75;28.50;;;;;21.41;60.10;101422.03;5019664;28;45449;-52
2022/11/13 04:54:46;;;;;;;;;36.25;32.00;;;;;21.40;59.78;101422.94;5002736;28;64307;-53
2022/11/13 04:57:11;;;;;;;;;37.50;32.00;;;;;21.41;59.81;101421.16;4985264;28;66145;-52
2022/11/13 04:59:36;;;;;;;;;34.75;32.50;;;;;21.41;59.59;101430.00;5019562;28;69556;-50
2022/11/13 05:02:02;;;;;;;;;31.75;30.25;;;;;21.41;59.92;101419.38;5019336;28;45330;-48
2022/11/13 05:04:27;;;;;;;;;30.00;29.00;;;;;21.41;59.96;101422.03;5020370;28;45557;-50
2022/11/13 05:06:53;;;;;;;;;40.00;32.00;;;;;21.40;59.67;101420.28;5019472;28;69424;-51
2022/11/13 05:09:19;;;;;;;;;30.75;29.75;;;;;21.39;59.68;101410.59;5019182;28;45279;-53
2022/11/13 05:11:44;;;;;;;;;36.50;33.25;;;;;21.41;59.86;101421.16;5020118;28;45571;-49
2022/11/13 05:14:10;;;;;;;;;32.50;31.25;;;;;21.39;60.12;101413.25;5019672;28;67170;-47
2022/11/13 05:16:36;;;;;;;;;35.00;32.00;;;;;21.39;59.86;101405.28;5002854;28;46441;-49
2022/11/13 05:19:05;;;;;;;;;34.50;31.50;;;;;21.41;59.81;101410.53;5019633;28;63500;-50
2022/11/13 05:21:34;;;;;;;;;33.50;27.25;;;;;21.40;59.45;101403.50;4987359;28;45341;-48
2022/11/13 05:23:59;;;;;;;;;37.00;31.75;;;;;21.39;59.64;101405.28;5003047;28;45370;-49
2022/11/13 05:26:27;;;;;;;;;32.00;30.50;;;;;21.41;59.77;101415.84;5018724;28;46758;-49
2022/11/13 05:28:56;;;;;;;;;34.50;30.25;;;;;21.41;59.74;101406.09;5018108;28;45287;-48
2022/11/13 05:31:21;;;;;;;;;33.00;29.00;;;;;21.41;59.99;101414.06;5017182;28;45524;-48
2022/11/13 05:33:48;;;;;;;;;35.75;31.50;;;;;21.40;59.93;101409.66;5020053;28;45339;-51
2022/11/13 05:36:14;;;;;;;;;35.75;32.00;;;;;21.39;59.64;101407.94;5018620;28;45285;-52
2022/11/13 05:38:40;;;;;;;;;27.50;25.00;;;;;21.41;60.02;101397.25;5002278;28;45241;-47
2022/11/13 05:41:07;;;;;;;;;33.00;32.00;;;;;21.41;59.59;101403.44;5019926;28;45258;-50
2022/11/13 05:43:33;;;;;;;;;32.25;31.25;;;;;21.39;60.36;101399.97;5002348;28;47054;-49
2022/11/13 05:46:04;;;;;;;;;38.50;33.50;;;;;21.41;60.09;101398.13;5018430;28;46105;-49
2022/11/13 05:48:30;;;;;;;;;38.00;32.25;;;;;21.40;60.26;101399.03;5002600;28;45261;-48
2022/11/13 05:51:10;;;;;;;;;33.75;31.75;;;;;21.40;59.77;101391.06;5019948;28;45613;-53
2022/11/13 05:53:35;;;;;;;;;33.75;30.75;;;;;21.40;60.16;101393.72;5018586;28;45552;-51
2022/11/13 05:56:02;;;;;;;;;35.50;31.50;;;;;21.38;59.81;101384.06;5018204;28;45449;-46
2022/11/13 05:58:27;;;;;;;;;38.25;30.00;;;;;21.37;59.81;101375.22;5018214;28;45202;-49
2022/11/13 06:00:53;;;;;;;;;37.75;31.75;;;;;21.38;59.65;101363.69;5019831;28;45269;-49
2022/11/13 06:03:19;;;;;;;;;37.00;32.75;;;;;21.38;59.74;101361.03;5018092;28;45476;-49
2022/11/13 06:05:44;;;;;;;;;37.75;31.75;;;;;21.39;60.19;101361.91;5001873;28;47672;-52
2022/11/13 06:08:10;;;;;;;;;36.00;31.00;;;;;21.38;59.98;101357.50;5018971;28;58022;-52
2022/11/13 06:10:35;;;;;;;;;38.50;30.50;;;;;21.38;59.89;101357.50;5018344;28;52347;-52
2022/11/13 06:13:01;;;;;;;;;41.75;33.25;;;;;21.38;59.66;101353.06;5004170;28;45463;-49
2022/11/13 06:15:26;;;;;;;;;34.75;30.50;;;;;21.38;59.44;101353.06;5020933;28;73111;-50
2022/11/13 06:17:52;;;;;;;;;36.75;32.00;;;;;21.39;59.65;101343.31;5021659;28;45313;-51
2022/11/13 06:20:17;;;;;;;;;34.25;31.00;;;;;21.39;59.53;101348.63;4988778;28;45479;-48
2022/11/13 06:22:42;;;;;;;;;45.75;36.25;;;;;21.38;59.27;101337.16;5021609;28;45503;-50
2022/11/13 06:25:08;;;;;;;;;49.75;40.50;;;;;21.38;59.54;101333.63;5004992;28;47849;-50
2022/11/13 06:27:34;;;;;;;;;54.50;43.50;;;;;21.38;59.45;101339.78;5022632;28;45401;-46
2022/11/13 06:29:59;;;;;;;;;49.75;40.75;;;;;21.39;59.50;101338.00;5005176;28;45331;-46
2022/11/13 06:32:25;;;;;;;;;52.50;42.00;;;;;21.38;59.62;101334.50;5022774;28;45418;-48
2022/11/13 06:34:50;;;;;;;;;52.25;41.50;;;;;21.40;59.42;101331.78;5021197;28;46209;-47
2022/11/13 06:37:15;;;;;;;;;48.50;40.25;;;;;21.38;59.61;101331.84;5004767;28;45665;-48
2022/11/13 06:39:41;;;;;;;;;49.25;39.25;;;;;21.39;59.74;101332.69;5003806;28;53355;-47
2022/11/13 06:42:06;;;;;;;;;50.00;41.25;;;;;21.38;59.27;101329.19;5021755;28;63952;-48
2022/11/13 06:44:31;;;;;;;;;55.25;43.00;;;;;21.39;59.64;101330.91;5021661;28;67730;-48
2022/11/13 06:46:57;;;;;;;;;51.75;40.25;;;;;21.39;60.15;101325.59;5019464;28;59409;-50
2022/11/13 06:49:22;;;;;;;;;52.25;40.25;;;;;21.40;59.51;101342.41;5019543;28;52539;-50
2022/11/13 06:51:48;;;;;;;;;51.25;42.25;;;;;21.38;59.62;101326.53;5021723;28;65450;-49
2022/11/13 06:54:13;;;;;;;;;53.75;41.50;;;;;21.39;59.79;101330.03;5004379;28;46520;-52
2022/11/13 06:56:44;;;;;;;;;49.00;40.25;;;;;21.39;59.79;101327.41;5020354;28;56853;-53
2022/11/13 06:59:09;;;;;;;;;47.00;38.50;;;;;21.39;59.84;101332.69;5020208;28;45423;-53
2022/11/13 07:01:36;;;;;;;;;49.00;40.00;;;;;21.41;59.70;101334.41;5021070;28;45324;-53
2022/11/13 07:04:03;;;;;;;;;51.50;39.50;;;;;21.40;59.91;101329.13;5019235;28;45452;-53
2022/11/13 07:06:28;;;;;;;;;49.75;39.25;;;;;21.42;59.77;101336.13;5019980;28;45341;-53
2022/11/13 07:08:54;;;;;;;;;45.75;38.25;;;;;21.42;60.27;101322.00;5006844;28;55614;-53
2022/11/13 07:11:20;;;;;;;;;46.50;38.50;;;;;21.45;60.21;101332.53;5020805;28;45288;-49
2022/11/13 07:13:46;;;;;;;;;47.25;40.00;;;;;21.45;60.75;101314.81;5020664;28;46160;-54
2022/11/13 07:16:12;;;;;;;;;50.75;39.00;;;;;21.49;60.46;101330.69;5019035;28;45268;-52
2022/11/13 07:18:38;;;;;;;;;46.75;39.25;;;;;21.49;61.09;101328.88;5004810;28;45383;-51
2022/11/13 07:21:05;;;;;;;;;49.75;40.50;;;;;21.50;60.99;101330.63;5021638;28;45371;-53
2022/11/13 07:23:30;;;;;;;;;43.00;35.50;;;;;21.51;59.72;101337.69;5022320;28;45701;-51
2022/11/13 07:25:56;;;;;;;;;49.75;38.75;;;;;21.47;60.22;101337.81;5015439;28;45627;-52
2022/11/13 07:28:21;;;;;;;;;43.00;35.00;;;;;21.47;60.75;101340.47;5017942;28;45473;-50
2022/11/13 07:30:46;;;;;;;;;47.75;40.50;;;;;21.47;60.82;101340.47;5019572;28;56203;-52
2022/11/13 07:33:12;;;;;;;;;45.00;37.00;;;;;21.48;60.94;101339.56;5020441;28;46032;-52
2022/11/13 07:35:37;;;;;;;;;47.75;39.75;;;;;21.50;61.30;101340.38;5000834;28;45270;-49
2022/11/13 07:38:03;;;;;;;;;49.75;39.50;;;;;21.50;60.95;101343.03;5011649;28;56844;-48
2022/11/13 07:40:28;;;;;;;;;43.50;35.75;;;;;21.51;61.05;101344.78;5015579;28;45620;-48
2022/11/13 07:43:00;;;;;;;;;42.25;36.50;;;;;21.52;60.40;101339.41;5021523;28;46244;-51
2022/11/13 07:45:26;;;;;;;;;50.00;38.75;;;;;21.52;61.06;101330.59;5020260;28;45477;-51
2022/11/13 07:47:59;;;;;;;;;45.00;36.50;;;;;21.52;60.85;101328.78;5021677;28;45340;-51
2022/11/13 07:50:28;;;;;;;;;44.75;35.75;;;;;21.53;60.73;101325.22;5021518;28;45567;-53
2022/11/13 07:52:57;;;;;;;;;48.00;38.00;;;;;21.53;60.87;101319.03;5020298;28;47115;-50
2022/11/13 07:55:23;;;;;;;;;42.25;36.00;;;;;21.54;60.50;101313.69;5020085;28;45517;-52
2022/11/13 07:57:48;;;;;;;;;42.75;35.75;;;;;21.55;60.48;101317.25;4987330;28;45380;-52
2022/11/13 08:00:14;;;;;;;;;36.50;33.25;;;;;21.54;60.53;101319.00;5021132;28;52890;-51
2022/11/13 08:02:40;;;;;;;;;42.00;34.50;;;;;21.55;60.58;101317.25;5020017;28;46089;-54
2022/11/13 08:05:05;;;;;;;;;41.25;34.25;;;;;21.54;60.29;101307.50;5019932;28;45524;-50
2022/11/13 08:07:31;;;;;;;;;40.75;34.00;;;;;21.54;60.46;101302.19;5021537;28;45330;-50
2022/11/13 08:09:57;;;;;;;;;36.00;31.00;;;;;21.54;60.13;101307.50;5019980;28;45554;-52
2022/11/13 08:12:22;;;;;;;;;39.50;35.00;;;;;21.53;60.19;101306.63;5003477;28;46065;-54
2022/11/13 08:14:47;;;;;;;;;43.00;34.00;;;;;21.53;60.37;101308.41;5021159;28;58857;-53
2022/11/13 08:17:13;;;;;;;;;34.25;32.25;;;;;21.54;60.17;101310.16;5019449;28;61096;-53
2022/11/13 08:19:38;;;;;;;;;34.00;27.25;;;;;21.55;60.04;101309.28;5021064;28;45227;-57
2022/11/13 08:22:04;;;;;;;;;37.00;33.25;;;;;21.55;59.84;101307.47;5019167;28;72683;-51
2022/11/13 08:24:29;;;;;;;;;38.50;32.50;;;;;21.55;60.13;101291.56;5018873;28;70759;-54
2022/11/13 08:26:54;;;;;;;;;38.50;33.75;;;;;21.55;59.92;101298.66;5020408;28;61857;-52
2022/11/13 08:29:20;;;;;;;;;35.75;32.25;;;;;21.56;59.86;101300.38;5021146;28;45512;-54
2022/11/13 08:31:45;;;;;;;;;33.50;31.00;;;;;21.55;59.76;101307.47;5019698;28;52581;-53
2022/11/13 08:34:10;;;;;;;;;33.75;32.00;;;;;21.56;59.59;101308.34;5020182;28;45305;-53
2022/11/13 08:36:36;;;;;;;;;39.25;33.00;;;;;21.55;59.51;101299.50;5021655;28;46014;-54
2022/11/13 08:39:01;;;;;;;;;39.25;33.25;;;;;21.57;59.58;101296.81;5019612;28;45231;-53
2022/11/13 08:41:27;;;;;;;;;33.75;32.00;;;;;21.56;59.42;101287.09;5018916;28;59088;-53
2022/11/13 08:43:52;;;;;;;;;34.00;30.00;;;;;21.55;59.50;101283.56;5021216;28;45625;-53
2022/11/13 08:46:18;;;;;;;;;32.00;29.75;;;;;21.56;59.12;101292.41;5020268;28;62365;-55
2022/11/13 08:48:43;;;;;;;;;33.75;30.75;;;;;21.55;59.27;101278.28;5002249;28;63432;-50
2022/11/13 08:51:09;;;;;;;;;31.50;29.25;;;;;21.56;59.19;101281.78;5020756;28;45338;-52
2022/11/13 08:53:34;;;;;;;;;32.75;29.50;;;;;21.56;59.23;101276.47;5019890;28;64240;-52
2022/11/13 08:56:01;;;;;;;;;29.00;27.50;;;;;21.56;59.09;101271.16;5020801;28;45308;-52
2022/11/13 08:58:26;;;;;;;;;34.25;28.75;;;;;21.55;59.22;101278.28;5002934;28;45248;-55
2022/11/13 09:00:51;;;;;;;;;30.75;26.75;;;;;21.56;59.45;101279.13;5020003;28;60518;-50
2022/11/13 09:03:17;;;;;;;;;33.00;28.00;;;;;21.55;58.84;101267.63;5019022;28;45322;-54
2022/11/13 09:05:42;;;;;;;;;30.00;29.00;;;;;21.55;59.29;101264.13;5018743;28;65319;-54
2022/11/13 09:08:09;;;;;;;;;29.25;28.25;;;;;21.56;59.04;101265.84;5020590;28;45334;-52
2022/11/13 09:10:34;;;;;;;;;31.75;27.50;;;;;21.56;58.71;101264.06;5007110;28;46169;-54
2022/11/13 09:13:01;;;;;;;;;17.00;14.25;;;;;21.56;58.90;101260.53;5019039;28;55655;-53
2022/11/13 09:15:27;;;;;;;;;38.25;30.75;;;;;21.57;59.01;101256.97;5019408;28;45265;-54
2022/11/13 09:17:59;;;;;;;;;24.25;22.50;;;;;21.57;58.69;101254.31;5019188;28;45496;-53
2022/11/13 09:20:26;;;;;;;;;30.25;29.50;;;;;21.55;59.05;101254.38;5019202;28;45419;-52
2022/11/13 09:23:02;;;;;;;;;33.75;30.25;;;;;21.55;58.53;101249.06;5020056;28;45311;-54
2022/11/13 09:25:28;;;;;;;;;32.50;27.50;;;;;21.57;58.66;101249.00;5019173;28;45496;-52
2022/11/13 09:27:54;;;;;;;;;28.00;24.25;;;;;21.56;58.60;101256.09;5018754;28;45321;-54
2022/11/13 09:30:20;;;;;;;;;34.75;30.75;;;;;21.56;58.53;101248.13;5018943;28;47969;-52
2022/11/13 09:32:46;;;;;;;;;29.50;23.00;;;;;21.57;58.77;101254.31;5018915;28;45334;-53
2022/11/13 09:35:11;;;;;;;;;24.75;22.00;;;;;21.57;58.89;101252.53;5002575;28;45343;-54
2022/11/13 09:37:37;;;;;;;;;30.25;27.25;;;;;21.55;58.77;101248.19;5020197;28;45346;-54
2022/11/13 09:40:03;;;;;;;;;31.50;27.00;;;;;21.57;58.45;101249.88;5019100;28;45926;-53
2022/11/13 09:42:28;;;;;;;;;28.25;26.75;;;;;21.57;58.39;101249.00;5018907;28;45244;-52
2022/11/13 09:44:57;;;;;;;;;28.25;27.25;;;;;21.57;58.14;101247.22;5002499;28;45333;-54
2022/11/13 09:47:38;;;;;;;;;24.00;20.75;;;;;21.57;58.45;101244.56;5020593;28;45202;-51
2022/11/13 09:50:18;;;;;;;;;27.25;24.25;;;;;21.58;58.77;101245.44;5022067;28;46382;-51
2022/11/13 09:52:44;;;;;;;;;28.25;27.25;;;;;21.58;58.73;101240.97;5022283;28;45330;-52
2022/11/13 09:55:11;;;;;;;;;24.00;22.25;;;;;21.58;58.33;101229.50;5021331;28;63343;-55
2022/11/13 09:57:42;;;;;;;;;25.50;20.25;;;;;21.56;58.23;101229.53;5022198;28;45364;-52
2022/11/13 10:00:20;;;;;;;;;23.25;21.50;;;;;21.59;58.64;101236.53;5005823;28;47026;-55
2022/11/13 10:02:58;;;;;;;;;28.00;25.00;;;;;21.59;58.49;101240.06;5022029;28;45362;-48
2022/11/13 10:05:40;;;;;;;;;25.25;23.25;;;;;21.60;58.33;101235.63;5022867;28;45314;-54
2022/11/13 10:08:11;;;;;;;;;30.00;26.25;;;;;21.59;58.29;101232.09;5023371;28;45599;-54
2022/11/13 10:11:04;;;;;;;;;25.50;23.50;;;;;21.60;58.60;101222.34;4993320;28;45282;-52
2022/11/13 10:13:37;;;;;;;;;26.00;23.75;;;;;21.60;58.14;101225.00;5023303;28;45282;-56
2022/11/13 10:16:26;;;;;;;;;23.75;22.25;;;;;21.59;58.30;101218.81;4989427;28;45330;-54
2022/11/13 10:18:53;;;;;;;;;24.75;23.50;;;;;21.60;57.91;101217.91;5022085;28;45308;-52
2022/11/13 10:21:33;;;;;;;;;25.50;23.50;;;;;21.61;57.95;101214.31;5005350;28;46456;-53
2022/11/13 10:24:02;;;;;;;;;24.75;21.25;;;;;21.62;58.03;101215.19;5005406;28;46150;-54
2022/11/13 10:26:28;;;;;;;;;30.75;26.00;;;;;21.63;58.19;101216.94;4988990;28;45264;-53
2022/11/13 10:29:10;;;;;;;;;29.50;26.25;;;;;21.63;57.93;101209.88;5021661;28;45567;-53
2022/11/13 10:31:49;;;;;;;;;27.75;22.25;;;;;21.64;58.60;101200.97;5006340;28;46585;-55
2022/11/13 10:34:16;;;;;;;;;27.75;22.75;;;;;21.65;57.96;101207.16;5005113;28;45332;-55
2022/11/13 10:36:50;;;;;;;;;25.25;21.50;;;;;21.65;58.00;101199.19;5023068;28;45299;-55
2022/11/13 10:39:16;;;;;;;;;22.50;20.00;;;;;21.66;58.24;101201.78;5022803;28;45361;-52
2022/11/13 10:41:47;;;;;;;;;26.00;21.00;;;;;21.65;58.33;101194.75;5020520;28;69202;-51
2022/11/13 10:44:24;;;;;;;;;25.75;23.50;;;;;21.66;57.81;101201.78;5022668;28;45350;-50
2022/11/13 10:46:49;;;;;;;;;29.25;24.25;;;;;21.68;58.23;101201.75;5023025;28;45359;-53
2022/11/13 10:49:20;;;;;;;;;22.00;20.00;;;;;21.67;58.24;101195.56;5022726;28;45312;-52
2022/11/13 10:51:56;;;;;;;;;24.00;20.75;;;;;21.69;57.63;101191.06;5022702;28;46362;-54
2022/11/13 10:54:26;;;;;;;;;25.50;22.00;;;;;21.69;57.56;101182.22;4989203;28;45574;-55
2022/11/13 10:57:03;;;;;;;;;29.50;22.75;;;;;21.70;57.85;101189.28;5004788;28;45487;-52
2022/11/13 10:59:40;;;;;;;;;22.75;22.00;;;;;21.68;57.64;101178.69;5021267;28;45455;-53
2022/11/13 11:02:18;;;;;;;;;19.00;19.00;;;;;21.70;57.70;101168.88;5021432;28;45612;-51
2022/11/13 11:04:44;;;;;;;;;25.00;21.50;;;;;21.71;57.54;101172.41;5021706;28;45402;-53
2022/11/13 11:07:18;;;;;;;;;21.75;21.25;;;;;21.72;57.56;101166.22;5021564;28;45505;-51
2022/11/13 11:09:48;;;;;;;;;28.50;24.25;;;;;21.72;58.03;101163.56;5005772;28;45395;-54
2022/11/13 11:12:22;;;;;;;;;21.25;18.75;;;;;21.71;57.97;101162.66;5022470;28;45287;-54